Date,TemperatureHighF,TemperatureAvgF,TemperatureLowF,DewpointHighF,DewpointAvgF,DewpointLowF,HumidityHigh,HumidityAvg,HumidityLow,PressureMaxIn,PressureMinIn,WindSpeedMaxMPH,WindSpeedAvgMPH,GustSpeedMaxMPH,PrecipitationSumIn
2013-2-6,44.0,35.2,26.0,31.0,27.0,22.0,96,74,52,30.32,29.92,11,2,15,0.00
2013-2-7,40.0,32.6,23.0,36.0,25.4,19.0,91,75,56,30.45,30.20,7,2,11,0.00
2013-2-8,46.0,40.7,34.0,45.0,39.1,33.0,97,94,85,30.20,29.53,10,3,17,1.41
2013-2-9,37.0,31.6,27.0,33.0,23.4,16.0,95,73,55,30.31,29.71,11,4,18,0.15
2013-2-10,36.0,28.8,19.0,30.0,17.8,11.0,85,64,44,30.46,30.31,3,1,10,0.01
2013-2-12,52.0,42.5,32.0,36.0,32.3,29.0,94,69,45,29.94,29.80,6,1,13,0.01
2013-2-13,44.0,35.7,27.0,37.0,32.2,25.0,96,87,74,29.94,29.58,9,2,12,0.26
2013-2-14,48.0,36.9,31.0,40.0,34.2,30.0,97,90,72,30.01,29.65,3,0,6,0.40
2013-2-15,54.0,40.2,29.0,45.0,36.7,28.0,97,88,71,30.03,29.89,6,1,10,0.01
2013-3-23,50.0,40.3,27.0,28.0,25.1,22.0,83,56,39,29.94,29.83,7,2,13,0.00
2013-3-24,46.0,36.3,26.0,31.0,26.0,23.0,87,67,44,29.94,29.63,10,1,11,0.00
2013-3-25,40.0,35.4,34.0,38.0,33.8,31.0,96,93,76,29.65,29.36,10,3,13,0.88
2013-3-26,49.0,40.2,34.0,39.0,35.1,33.0,97,83,61,29.86,29.58,3,1,8,0.15
2013-3-27,52.0,43.5,31.0,36.0,31.4,28.0,93,64,41,29.99,29.86,10,2,12,0.01
2013-3-28,49.0,42.4,35.0,34.0,30.8,29.0,81,64,48,30.10,29.97,8,2,12,0.00
2013-3-29,57.0,45.5,35.0,34.0,31.3,29.0,81,59,39,30.16,30.06,6,1,10,0.00
2013-3-30,60.0,44.9,31.0,37.0,32.2,28.0,93,66,31,30.17,30.06,7,1,12,0.00
2013-3-31,52.0,44.8,35.0,50.0,40.8,-99.9,97,90,71,30.13,29.68,7,1,12,0.21
2013-4-19,67.0,61.0,55.0,63.0,59.1,54.0,97,93,83,29.96,29.66,9,2,14,0.11
2013-4-20,61.0,53.5,47.0,60.0,42.3,31.0,97,69,37,30.26,29.68,6,2,13,0.43
2013-4-21,52.0,44.3,33.0,35.0,30.6,25.0,85,60,38,30.56,30.25,7,1,12,0.01
2013-4-22,51.0,46.8,43.0,44.0,39.4,31.0,88,75,63,30.56,30.37,10,4,18,0.00
2013-4-23,49.0,46.3,44.0,45.0,42.9,41.0,92,88,83,30.37,30.07,12,3,15,0.00
2013-4-24,62.0,51.4,39.0,55.0,47.8,37.0,97,88,76,30.10,29.85,6,1,10,0.00
2013-5-9,73.0,63.1,56.0,62.0,57.7,55.0,97,84,59,29.94,29.87,6,1,10,0.07
2013-5-10,78.0,64.5,55.0,65.0,56.9,-99.9,98,81,57,29.98,29.85,7,1,9,0.01
2013-5-11,71.0,64.1,60.0,68.0,62.1,58.0,97,93,83,29.89,29.68,5,1,8,0.77
2013-5-12,69.0,60.3,47.0,61.0,49.0,-99.9,97,72,33,29.94,29.65,8,1,12,0.36
2013-5-13,61.0,50.1,38.0,45.0,35.5,30.0,96,61,36,30.08,29.94,8,1,19,0.01
2013-5-14,62.0,50.2,36.0,47.0,36.6,32.0,90,63,38,30.14,30.03,6,1,11,0.00
2013-5-15,71.0,61.0,52.0,61.0,54.8,48.0,90,80,68,30.07,29.67,5,1,10,0.01
2013-5-16,83.0,65.8,59.0,67.0,39.0,-99.9,96,71,35,29.80,29.67,3,1,7,0.01
2013-5-17,78.0,64.7,55.0,62.0,46.4,-99.9,88,65,38,30.15,29.80,7,1,10,0.00
2013-5-18,67.0,61.3,58.0,58.0,55.5,50.0,95,82,72,30.25,30.15,6,1,7,0.05
2013-5-19,62.0,59.9,58.0,61.0,58.9,57.0,97,96,94,30.23,30.10,7,1,9,0.30
2013-5-20,78.0,68.4,61.0,71.0,65.2,60.0,98,90,76,30.12,29.95,3,0,7,0.02
2013-6-3,73.0,69.8,67.0,71.0,68.5,66.0,97,96,93,29.85,29.77,3,0,4,1.05
2013-6-4,77.0,66.7,57.0,66.0,56.0,50.0,96,71,43,30.06,29.84,8,1,10,0.02
2013-6-5,72.0,62.5,51.0,60.0,55.2,49.0,95,79,50,30.15,30.05,4,1,9,0.00
2013-6-25,90.0,82.7,70.0,78.0,73.6,68.0,97,75,60,29.97,29.84,6,1,11,0.00
2013-6-26,89.0,80.3,71.0,79.0,72.9,68.0,96,79,60,29.87,29.76,6,2,16,0.19
2013-6-27,84.0,75.5,70.0,77.0,72.4,69.0,98,91,77,29.80,29.58,8,1,15,0.02
2013-6-28,86.0,77.4,71.0,78.0,72.8,69.0,97,86,71,29.59,29.47,7,2,12,0.04
2013-6-29,82.0,74.2,68.0,77.0,71.3,67.0,97,91,79,29.69,29.46,1,0,10,0.10
2013-6-30,80.0,73.7,70.0,75.0,71.7,68.0,97,93,84,29.87,29.69,1,0,2,0.03
2013-7-1,79.0,73.3,72.0,76.0,72.1,71.0,97,96,90,30.01,29.86,1,0,2,0.31
2013-7-2,81.0,74.6,72.0,76.0,72.6,70.0,98,94,84,30.18,30.01,10,2,14,0.01
2013-7-3,84.0,75.7,69.0,79.0,72.8,68.0,98,91,83,30.23,30.17,9,1,15,0.01
2013-7-4,87.0,77.4,70.0,79.0,73.4,69.0,98,88,75,30.24,30.18,9,2,14,0.01
2013-7-5,88.0,76.9,70.0,79.0,73.1,69.0,97,89,72,30.22,30.10,6,1,12,0.00
2013-7-21,90.0,80.0,71.0,80.0,74.9,70.0,97,85,64,29.91,29.83,6,1,10,0.49
2013-7-22,85.0,76.6,72.0,78.0,73.7,70.0,97,92,77,29.89,29.75,4,1,8,0.00
2013-7-23,87.0,79.3,73.0,79.0,75.5,71.0,97,89,73,29.76,29.57,9,1,10,0.05
2013-7-24,88.0,79.0,71.0,76.0,72.0,68.0,98,81,60,29.84,29.62,5,1,11,0.02
2013-7-25,74.0,67.5,64.0,68.0,62.1,58.0,92,83,69,29.98,29.84,12,3,15,0.01
2013-7-26,80.0,70.3,64.0,71.0,65.1,61.0,93,84,72,30.03,29.94,7,2,10,0.01
2013-7-27,81.0,72.1,64.0,73.0,67.6,63.0,98,86,68,30.04,29.92,7,1,10,0.00
2013-7-28,80.0,72.8,66.0,75.0,70.2,65.0,98,92,84,29.95,29.89,10,1,14,0.01
2013-7-29,83.0,73.9,63.0,74.0,67.8,60.0,97,83,51,30.09,29.92,5,1,10,0.01
2013-7-30,83.0,70.5,59.0,64.0,61.0,58.0,96,74,47,30.15,30.09,8,1,10,0.00
2013-7-31,82.0,72.1,61.0,71.0,65.3,60.0,96,80,63,30.13,30.02,8,1,10,0.00
2013-8-1,79.0,70.3,67.0,72.0,68.2,65.0,97,93,79,30.02,29.79,13,1,14,0.38
2013-8-2,85.0,74.7,66.0,75.0,68.7,64.0,98,84,52,29.92,29.78,7,1,11,0.01
2013-8-3,81.0,72.5,67.0,73.0,68.2,65.0,98,87,67,29.92,29.87,9,1,10,0.01
2013-8-4,82.0,71.8,64.0,67.0,62.0,58.0,97,74,47,29.94,29.83,10,2,13,0.01
2013-8-5,81.0,69.0,59.0,59.0,57.0,52.0,88,68,38,30.04,29.94,6,2,10,0.00
2013-8-6,78.0,67.1,60.0,69.0,63.9,58.0,98,90,74,30.09,30.01,8,0,9,0.08
2013-8-7,77.0,70.9,66.0,71.0,68.7,65.0,97,93,80,30.10,30.03,9,1,11,0.30
2013-8-27,89.0,80.3,72.0,72.0,69.8,68.0,90,72,52,29.88,29.83,7,2,14,0.00
2013-10-2,82.0,69.9,62.0,67.0,63.3,60.0,95,81,56,30.01,29.92,7,1,12,0.00
2013-10-3,76.0,68.9,64.0,67.0,64.0,62.0,95,86,62,30.08,30.00,4,1,10,0.00
2013-10-4,82.0,71.4,62.0,72.0,66.0,61.0,98,84,55,30.05,29.96,3,0,8,0.00
2013-10-5,81.0,68.9,65.0,72.0,66.6,64.0,98,92,73,30.04,29.99,6,2,10,0.00
2013-10-6,79.0,71.3,67.0,72.0,68.6,66.0,98,92,80,30.03,29.96,6,2,10,0.00
2013-10-7,79.0,70.1,60.0,73.0,67.5,59.0,96,92,81,29.98,29.80,14,2,19,0.30
2013-10-8,65.0,59.9,55.0,59.0,53.0,50.0,96,79,63,30.23,29.98,7,2,15,0.10
2013-10-9,63.0,58.9,55.0,57.0,53.1,50.0,92,82,73,30.26,30.15,21,5,23,0.06
2013-10-10,63.0,60.8,59.0,62.0,59.7,57.0,97,96,92,30.15,29.97,16,8,26,1.14
2013-10-29,61.0,52.2,43.0,52.0,47.2,41.0,94,83,71,30.33,30.25,10,3,14,0.00
2013-10-30,58.0,50.9,45.0,56.0,49.5,43.0,97,95,89,30.32,30.16,1,0,3,0.01
2013-10-31,68.0,58.0,50.0,62.0,55.9,49.0,98,93,82,30.18,29.83,8,1,11,0.01
2013-11-1,66.0,64.1,62.0,64.0,62.3,61.0,96,94,91,29.83,29.64,11,3,19,0.03